Time;durP1;ratioP1;P1;durP2;ratioP2;P2;SDS_P1;SDS_P2;PMS_P1;PMS_P2;Temp;Humidity;BMP_temperature;BMP_pressure;BME280_temperature;BME280_humidity;BME280_pressure;Samples;Min_cycle;Max_cycle;Signal;HPM_P1;HPM_P2
2023/09/09 00:00:54;;;;;;;11.00;9.90;;;;;;;;;;5082726;28;20467;-66
2023/09/09 00:03:20;;;;;;;12.70;9.67;;;;;;;;;;5077773;28;20752;-66
2023/09/09 00:05:45;;;;;;;11.40;9.80;;;;;;;;;;5075246;28;20278;-66
2023/09/09 00:08:10;;;;;;;12.55;9.70;;;;;;;;;;5074103;28;20020;-66
2023/09/09 00:10:36;;;;;;;12.67;8.93;;;;;;;;;;5073660;28;20082;-66
2023/09/09 00:13:03;;;;;;;11.63;9.05;;;;;;;;;;5074544;28;20314;-66
2023/09/09 00:15:29;;;;;;;11.18;9.13;;;;;;;;;;5081829;28;20024;-66
2023/09/09 00:17:55;;;;;;;12.43;10.52;;;;;;;;;;5076826;28;20032;-66
2023/09/09 00:20:28;;;;;;;14.63;9.57;;;;;;;;;;5075006;28;20111;-66
2023/09/09 00:22:53;;;;;;;11.10;9.90;;;;;;;;;;5085343;28;20451;-67
2023/09/09 00:25:18;;;;;;;11.87;10.13;;;;;;;;;;5086988;28;20126;-66
2023/09/09 00:27:44;;;;;;;12.77;9.40;;;;;;;;;;5073370;28;20277;-66
2023/09/09 00:30:09;;;;;;;11.53;10.03;;;;;;;;;;5073218;28;20625;-66
2023/09/09 00:32:34;;;;;;;10.18;9.15;;;;;;;;;;5073068;28;20676;-66
2023/09/09 00:35:00;;;;;;;12.10;10.25;;;;;;;;;;5086107;28;20058;-68
2023/09/09 00:37:25;;;;;;;14.07;10.07;;;;;;;;;;5073172;28;20057;-67
2023/09/09 00:39:50;;;;;;;14.80;11.00;;;;;;;;;;5087822;28;20490;-67
2023/09/09 00:42:15;;;;;;;11.95;10.23;;;;;;;;;;5092585;28;20032;-66
2023/09/09 00:44:41;;;;;;;12.07;10.70;;;;;;;;;;5088460;28;20028;-67
2023/09/09 00:47:06;;;;;;;12.90;11.10;;;;;;;;;;5088866;28;20296;-67
2023/09/09 00:49:32;;;;;;;13.05;11.20;;;;;;;;;;5089811;28;20729;-66
2023/09/09 00:51:57;;;;;;;15.32;10.60;;;;;;;;;;5086251;28;20039;-67
2023/09/09 00:54:22;;;;;;;11.70;10.50;;;;;;;;;;5072711;28;20387;-67
2023/09/09 00:56:50;;;;;;;12.43;11.02;;;;;;;;;;5073298;28;20218;-67
2023/09/09 00:59:15;;;;;;;14.90;11.27;;;;;;;;;;5086078;28;20035;-67
2023/09/09 01:01:40;;;;;;;12.52;10.20;;;;;;;;;;5079157;28;20111;-67
2023/09/09 01:04:06;;;;;;;12.23;10.52;;;;;;;;;;5057360;28;20047;-67
2023/09/09 01:06:32;;;;;;;12.52;10.93;;;;;;;;;;5078829;28;20097;-67
2023/09/09 01:08:57;;;;;;;11.43;10.23;;;;;;;;;;5076619;28;20028;-68
2023/09/09 01:11:22;;;;;;;15.48;11.10;;;;;;;;;;5087334;28;20027;-67
2023/09/09 01:13:47;;;;;;;13.73;11.07;;;;;;;;;;5077893;28;20042;-67
2023/09/09 01:16:13;;;;;;;14.23;11.03;;;;;;;;;;5077004;28;20756;-67
2023/09/09 01:18:38;;;;;;;12.63;10.95;;;;;;;;;;5076093;28;20753;-76
2023/09/09 01:21:10;;;;;;;13.18;11.23;;;;;;;;;;5079949;28;20097;-67
2023/09/09 01:23:36;;;;;;;11.75;9.68;;;;;;;;;;5077288;28;20024;-67
2023/09/09 01:26:01;;;;;;;13.50;11.07;;;;;;;;;;5091669;28;20027;-68
2023/09/09 01:28:26;;;;;;;13.43;11.68;;;;;;;;;;5090744;28;20039;-68
2023/09/09 01:30:52;;;;;;;12.32;11.10;;;;;;;;;;5090729;28;20020;-68
2023/09/09 01:33:17;;;;;;;15.35;11.48;;;;;;;;;;5089804;28;20039;-67
2023/09/09 01:35:43;;;;;;;12.70;11.13;;;;;;;;;;5078721;28;20027;-67
2023/09/09 01:38:08;;;;;;;12.25;11.00;;;;;;;;;;5089108;28;20655;-68
2023/09/09 01:40:34;;;;;;;16.80;11.90;;;;;;;;;;5090045;28;20560;-68
2023/09/09 01:42:59;;;;;;;14.87;12.30;;;;;;;;;;5089896;28;20062;-67
2023/09/09 01:45:24;;;;;;;18.87;13.47;;;;;;;;;;5090683;28;20323;-68
2023/09/09 01:47:49;;;;;;;15.30;12.83;;;;;;;;;;5088943;28;20266;-68
2023/09/09 01:50:15;;;;;;;14.20;12.70;;;;;;;;;;5092032;28;20364;-68
2023/09/09 01:52:40;;;;;;;12.13;10.70;;;;;;;;;;5087641;28;20024;-68
2023/09/09 01:55:05;;;;;;;15.80;12.47;;;;;;;;;;5078301;28;20379;-68
2023/09/09 01:57:31;;;;;;;15.73;12.63;;;;;;;;;;5089061;28;20259;-67
2023/09/09 01:59:57;;;;;;;15.52;12.32;;;;;;;;;;5083087;28;20494;-68
2023/09/09 02:02:22;;;;;;;13.95;11.93;;;;;;;;;;5085206;28;20065;-68
2023/09/09 02:04:47;;;;;;;13.95;12.50;;;;;;;;;;5085326;28;20106;-68
2023/09/09 02:07:13;;;;;;;16.45;12.63;;;;;;;;;;5081667;28;20560;-68
2023/09/09 02:09:38;;;;;;;14.55;12.23;;;;;;;;;;5088144;28;20031;-69
2023/09/09 02:12:03;;;;;;;13.07;11.30;;;;;;;;;;5088136;28;20046;-69
2023/09/09 02:14:29;;;;;;;15.80;12.85;;;;;;;;;;5087361;28;20032;-69
2023/09/09 02:16:54;;;;;;;14.68;13.10;;;;;;;;;;5082804;28;20032;-69
2023/09/09 02:19:20;;;;;;;16.60;13.60;;;;;;;;;;5090487;28;20023;-68
2023/09/09 02:21:45;;;;;;;18.90;15.05;;;;;;;;;;5085514;28;20077;-68
2023/09/09 02:24:10;;;;;;;15.25;13.50;;;;;;;;;;5079271;28;20021;-68
2023/09/09 02:26:35;;;;;;;13.90;12.53;;;;;;;;;;5088454;28;20020;-68
2023/09/09 02:29:01;;;;;;;16.17;12.63;;;;;;;;;;5090767;28;20312;-68
2023/09/09 02:31:26;;;;;;;15.83;14.23;;;;;;;;;;5090170;28;20262;-68
2023/09/09 02:33:51;;;;;;;15.80;14.20;;;;;;;;;;5088031;28;20294;-68
2023/09/09 02:36:16;;;;;;;17.08;15.27;;;;;;;;;;5086203;28;20270;-68
2023/09/09 02:38:42;;;;;;;19.42;15.35;;;;;;;;;;5089599;28;20458;-68
2023/09/09 02:41:07;;;;;;;18.38;15.82;;;;;;;;;;5088181;28;20020;-67
2023/09/09 02:43:32;;;;;;;15.40;13.83;;;;;;;;;;5089845;28;20402;-67
2023/09/09 02:45:57;;;;;;;21.38;14.07;;;;;;;;;;5087523;28;20682;-67
2023/09/09 02:48:23;;;;;;;16.07;14.37;;;;;;;;;;5088500;28;20099;-67
2023/09/09 02:50:48;;;;;;;16.57;14.67;;;;;;;;;;5084592;28;20797;-67
2023/09/09 02:53:13;;;;;;;17.33;15.53;;;;;;;;;;5090742;28;20728;-67
2023/09/09 02:55:38;;;;;;;18.02;16.08;;;;;;;;;;5086274;28;20266;-67
2023/09/09 02:58:03;;;;;;;17.97;15.47;;;;;;;;;;5091316;28;20043;-67
2023/09/09 03:00:29;;;;;;;17.00;14.93;;;;;;;;;;5084397;28;20923;-67
2023/09/09 03:02:54;;;;;;;19.38;16.27;;;;;;;;;;5074089;28;20042;-68
2023/09/09 03:05:19;;;;;;;20.48;16.67;;;;;;;;;;5083614;28;20589;-69
2023/09/09 03:07:48;;;;;;;20.57;16.47;;;;;;;;;;5079595;28;20478;-68
2023/09/09 03:10:13;;;;;;;16.55;14.85;;;;;;;;;;5072655;28;20762;-68
2023/09/09 03:12:39;;;;;;;18.45;16.38;;;;;;;;;;5072057;28;20040;-68
2023/09/09 03:15:05;;;;;;;17.80;15.90;;;;;;;;;;5072394;28;20055;-68
2023/09/09 03:17:31;;;;;;;21.38;15.63;;;;;;;;;;5071596;28;20033;-68
2023/09/09 03:19:56;;;;;;;19.95;17.35;;;;;;;;;;5073096;28;20040;-68
2023/09/09 03:22:21;;;;;;;18.98;16.88;;;;;;;;;;5083325;28;20028;-69
2023/09/09 03:24:47;;;;;;;20.40;18.25;;;;;;;;;;5077806;28;20024;-66
2023/09/09 03:27:12;;;;;;;21.15;18.38;;;;;;;;;;5082177;28;20028;-67
2023/09/09 03:29:38;;;;;;;19.40;17.50;;;;;;;;;;5084584;28;20024;-67
2023/09/09 03:32:03;;;;;;;20.85;17.88;;;;;;;;;;5075893;28;20036;-67
2023/09/09 03:34:28;;;;;;;20.25;18.02;;;;;;;;;;5076188;28;20097;-67
2023/09/09 03:36:54;;;;;;;18.58;16.63;;;;;;;;;;5087167;28;20498;-67
2023/09/09 03:39:19;;;;;;;18.87;16.37;;;;;;;;;;5085133;28;20034;-67
2023/09/09 03:41:44;;;;;;;19.17;16.80;;;;;;;;;;5092756;28;20345;-67
2023/09/09 03:44:09;;;;;;;20.47;17.50;;;;;;;;;;5079488;28;20270;-66
2023/09/09 03:46:35;;;;;;;22.97;18.03;;;;;;;;;;5093258;28;20787;-67
2023/09/09 03:49:00;;;;;;;21.03;18.83;;;;;;;;;;5092590;28;21504;-67
2023/09/09 03:51:25;;;;;;;21.03;18.23;;;;;;;;;;5093607;28;20266;-66
2023/09/09 03:53:50;;;;;;;20.37;18.37;;;;;;;;;;5077756;28;20274;-67
2023/09/09 03:56:19;;;;;;;20.20;18.07;;;;;;;;;;5082833;28;20270;-67
2023/09/09 03:58:44;;;;;;;21.42;19.08;;;;;;;;;;5089811;28;20381;-66
2023/09/09 04:01:11;;;;;;;18.58;16.67;;;;;;;;;;5086648;28;20119;-64
2023/09/09 04:03:37;;;;;;;17.17;15.45;;;;;;;;;;5088883;28;20028;-67
2023/09/09 04:06:06;;;;;;;19.98;15.52;;;;;;;;;;5083931;28;20040;-67
2023/09/09 04:08:32;;;;;;;20.63;16.25;;;;;;;;;;5079324;28;20024;-67
2023/09/09 04:10:57;;;;;;;20.95;18.60;;;;;;;;;;5089817;28;20459;-67
2023/09/09 04:13:23;;;;;;;18.25;16.48;;;;;;;;;;5086617;28;20426;-67
2023/09/09 04:15:48;;;;;;;20.30;18.20;;;;;;;;;;5086658;28;20031;-67
2023/09/09 04:18:14;;;;;;;20.17;17.07;;;;;;;;;;5086427;28;20025;-67
2023/09/09 04:20:39;;;;;;;16.52;14.40;;;;;;;;;;5089153;28;20381;-66
2023/09/09 04:23:04;;;;;;;20.37;16.70;;;;;;;;;;5082343;28;20024;-67
2023/09/09 04:25:29;;;;;;;20.02;17.92;;;;;;;;;;5083102;28;20590;-66
2023/09/09 04:27:55;;;;;;;20.90;18.23;;;;;;;;;;5090501;28;20024;-67
2023/09/09 04:30:20;;;;;;;20.13;17.93;;;;;;;;;;5091722;28;20489;-67
2023/09/09 04:32:46;;;;;;;21.67;19.37;;;;;;;;;;5085364;28;21452;-66
2023/09/09 04:35:11;;;;;;;20.52;18.38;;;;;;;;;;5076983;28;20274;-66
2023/09/09 04:37:36;;;;;;;21.20;17.98;;;;;;;;;;5080574;28;20036;-66
2023/09/09 04:40:05;;;;;;;19.33;17.27;;;;;;;;;;5089097;28;20050;-67
2023/09/09 04:42:30;;;;;;;19.13;17.05;;;;;;;;;;5082125;28;20024;-66
2023/09/09 04:44:55;;;;;;;20.40;18.20;;;;;;;;;;5080716;28;20112;-66
2023/09/09 04:47:20;;;;;;;22.93;19.60;;;;;;;;;;5078672;28;20091;-66
2023/09/09 04:49:46;;;;;;;23.70;19.35;;;;;;;;;;5077740;28;20267;-66
2023/09/09 04:52:11;;;;;;;22.77;19.83;;;;;;;;;;5086787;28;20031;-67
2023/09/09 04:54:37;;;;;;;22.23;19.77;;;;;;;;;;5090394;28;20491;-67
2023/09/09 04:57:04;;;;;;;25.23;19.77;;;;;;;;;;5089394;28;20078;-68
2023/09/09 04:59:29;;;;;;;23.83;21.20;;;;;;;;;;5075188;28;20590;-68
2023/09/09 05:01:54;;;;;;;22.48;20.00;;;;;;;;;;5087736;28;20035;-67
2023/09/09 05:04:19;;;;;;;27.02;20.98;;;;;;;;;;5072614;28;20086;-67
2023/09/09 05:06:45;;;;;;;22.93;20.40;;;;;;;;;;5088563;28;20023;-68
2023/09/09 05:09:11;;;;;;;24.45;21.90;;;;;;;;;;5092149;28;20315;-68
2023/09/09 05:11:36;;;;;;;26.85;20.60;;;;;;;;;;5092112;28;20031;-67
2023/09/09 05:14:01;;;;;;;23.80;21.33;;;;;;;;;;5092150;28;20020;-68
2023/09/09 05:16:28;;;;;;;27.30;23.42;;;;;;;;;;5091951;28;20379;-68
2023/09/09 05:18:54;;;;;;;29.48;25.05;;;;;;;;;;5091805;28;20023;-68
2023/09/09 05:21:19;;;;;;;30.77;27.48;;;;;;;;;;5090987;28;20016;-68
2023/09/09 05:23:44;;;;;;;29.63;26.63;;;;;;;;;;5092184;28;20489;-68
2023/09/09 05:26:09;;;;;;;30.35;25.40;;;;;;;;;;5091351;28;20266;-67
2023/09/09 05:28:34;;;;;;;29.90;26.57;;;;;;;;;;5092238;28;20119;-68
2023/09/09 05:31:04;;;;;;;33.50;28.73;;;;;;;;;;5079232;28;20277;-68
2023/09/09 05:33:29;;;;;;;29.83;26.35;;;;;;;;;;5082766;28;20365;-68
2023/09/09 05:35:54;;;;;;;32.60;28.13;;;;;;;;;;5089954;28;20194;-68
2023/09/09 05:38:19;;;;;;;33.13;28.50;;;;;;;;;;5083059;28;20020;-68
2023/09/09 05:40:45;;;;;;;31.03;27.27;;;;;;;;;;5052516;28;20376;-68
2023/09/09 05:43:10;;;;;;;34.53;27.25;;;;;;;;;;5049553;28;20459;-68
2023/09/09 05:45:35;;;;;;;30.75;26.13;;;;;;;;;;5039816;28;20977;-68
2023/09/09 05:48:00;;;;;;;30.43;26.67;;;;;;;;;;5049314;28;20020;-67
2023/09/09 05:50:26;;;;;;;34.90;28.77;;;;;;;;;;5041883;28;21199;-68
2023/09/09 05:52:51;;;;;;;32.17;28.70;;;;;;;;;;5047815;28;20282;-68
2023/09/09 05:55:17;;;;;;;32.80;29.25;;;;;;;;;;5047204;28;20251;-68
2023/09/09 05:57:42;;;;;;;32.03;28.52;;;;;;;;;;5036379;28;20028;-68
2023/09/09 06:00:09;;;;;;;35.13;30.63;;;;;;;;;;5048558;28;20046;-67
2023/09/09 06:02:34;;;;;;;34.28;30.63;;;;;;;;;;5088105;28;20012;-67
2023/09/09 06:04:59;;;;;;;37.72;31.48;;;;;;;;;;5081586;28;20111;-67
2023/09/09 06:07:25;;;;;;;44.72;35.00;;;;;;;;;;5072957;28;20394;-67
2023/09/09 06:09:50;;;;;;;37.65;33.58;;;;;;;;;;5072610;28;20032;-67
2023/09/09 06:12:15;;;;;;;39.37;33.87;;;;;;;;;;5074302;28;20042;-67
2023/09/09 06:14:40;;;;;;;41.97;35.03;;;;;;;;;;5073937;28;20269;-68
2023/09/09 06:17:06;;;;;;;50.45;40.35;;;;;;;;;;5077140;28;20036;-68
2023/09/09 06:19:31;;;;;;;45.03;38.40;;;;;;;;;;5083297;28;20490;-67
2023/09/09 06:21:57;;;;;;;47.63;38.73;;;;;;;;;;5086328;28;20032;-68
2023/09/09 06:24:22;;;;;;;49.33;40.97;;;;;;;;;;5073318;28;20279;-68
2023/09/09 06:26:48;;;;;;;47.80;42.43;;;;;;;;;;5074059;28;20027;-68
2023/09/09 06:29:13;;;;;;;48.70;41.10;;;;;;;;;;5072620;28;20275;-67
2023/09/09 06:31:39;;;;;;;53.67;43.20;;;;;;;;;;5074261;28;20748;-67
2023/09/09 06:34:04;;;;;;;52.33;44.13;;;;;;;;;;5072862;28;20297;-67
2023/09/09 06:36:29;;;;;;;54.25;46.05;;;;;;;;;;5064438;28;20920;-67
2023/09/09 06:38:54;;;;;;;60.73;47.63;;;;;;;;;;5046038;28;20020;-67
2023/09/09 06:41:20;;;;;;;63.33;51.43;;;;;;;;;;5037012;28;20377;-68
2023/09/09 06:43:46;;;;;;;65.38;51.97;;;;;;;;;;5045929;28;21234;-67
2023/09/09 06:46:11;;;;;;;64.35;49.50;;;;;;;;;;5038804;28;20035;-68
2023/09/09 06:48:37;;;;;;;65.93;52.25;;;;;;;;;;5048173;28;21223;-67
2023/09/09 06:51:02;;;;;;;57.80;50.03;;;;;;;;;;5035698;28;20140;-66
2023/09/09 06:53:28;;;;;;;63.28;50.53;;;;;;;;;;5047316;28;20123;-67
2023/09/09 06:55:53;;;;;;;61.13;51.00;;;;;;;;;;5046722;28;20295;-66
2023/09/09 06:58:18;;;;;;;68.30;53.53;;;;;;;;;;5061751;28;20264;-68
2023/09/09 07:00:50;;;;;;;65.13;54.33;;;;;;;;;;5085730;28;20380;-68
2023/09/09 07:03:16;;;;;;;77.13;60.08;;;;;;;;;;5083548;28;20271;-68
2023/09/09 07:05:41;;;;;;;67.43;57.92;;;;;;;;;;5083027;28;20031;-67
2023/09/09 07:08:06;;;;;;;72.87;60.33;;;;;;;;;;5089163;28;20555;-68
2023/09/09 07:10:31;;;;;;;63.87;54.63;;;;;;;;;;5093481;28;20278;-69
2023/09/09 07:12:57;;;;;;;67.03;58.35;;;;;;;;;;5088198;28;20274;-68
2023/09/09 07:15:22;;;;;;;63.05;53.83;;;;;;;;;;5086378;28;20063;-67
2023/09/09 07:17:48;;;;;;;58.95;52.40;;;;;;;;;;5091359;28;20470;-67
2023/09/09 07:20:13;;;;;;;65.10;56.45;;;;;;;;;;5090389;28;20028;-67
2023/09/09 07:22:38;;;;;;;61.55;54.00;;;;;;;;;;5086287;28;20052;-67
2023/09/09 07:25:05;;;;;;;62.40;54.50;;;;;;;;;;5090404;28;20032;-67
2023/09/09 07:27:30;;;;;;;61.97;52.00;;;;;;;;;;5086318;28;20025;-67
2023/09/09 07:29:55;;;;;;;57.88;51.05;;;;;;;;;;5090661;28;20390;-68
2023/09/09 07:32:20;;;;;;;63.22;55.90;;;;;;;;;;5086875;28;20031;-67
2023/09/09 07:34:46;;;;;;;65.82;57.05;;;;;;;;;;5090768;28;20024;-68
2023/09/09 07:37:11;;;;;;;66.73;58.17;;;;;;;;;;5084616;28;20029;-67
2023/09/09 07:39:46;;;;;;;79.50;61.37;;;;;;;;;;5080993;28;20732;-67
2023/09/09 07:42:12;;;;;;;75.35;61.80;;;;;;;;;;5081267;28;20279;-67
2023/09/09 07:44:38;;;;;;;70.78;60.03;;;;;;;;;;5088847;28;20027;-67
2023/09/09 07:47:06;;;;;;;66.67;58.47;;;;;;;;;;5083205;28;20493;-68
2023/09/09 07:49:32;;;;;;;66.13;54.60;;;;;;;;;;5089350;28;20323;-67
2023/09/09 07:51:57;;;;;;;63.78;56.88;;;;;;;;;;5084624;28;20025;-68
2023/09/09 07:54:22;;;;;;;56.90;49.15;;;;;;;;;;5092950;28;20054;-68
2023/09/09 07:56:47;;;;;;;58.35;51.05;;;;;;;;;;5076916;28;20021;-68
2023/09/09 07:59:13;;;;;;;55.83;46.40;;;;;;;;;;5091187;28;20022;-67
2023/09/09 08:01:38;;;;;;;58.70;48.00;;;;;;;;;;5085803;28;20329;-67
2023/09/09 08:04:04;;;;;;;54.93;43.93;;;;;;;;;;5085538;28;20052;-67
2023/09/09 08:06:29;;;;;;;49.00;42.80;;;;;;;;;;5086424;28;20764;-68
2023/09/09 08:08:54;;;;;;;49.90;41.97;;;;;;;;;;5088347;28;20020;-67
2023/09/09 08:11:19;;;;;;;50.20;41.10;;;;;;;;;;5085778;28;20266;-68
2023/09/09 08:13:45;;;;;;;49.60;39.90;;;;;;;;;;5080468;28;20281;-68
2023/09/09 08:16:10;;;;;;;40.37;34.40;;;;;;;;;;5085707;28;20618;-68
2023/09/09 08:18:35;;;;;;;44.47;39.70;;;;;;;;;;5084847;28;20277;-67
2023/09/09 08:21:00;;;;;;;43.55;35.92;;;;;;;;;;5090081;28;20309;-68
2023/09/09 08:23:26;;;;;;;42.08;36.35;;;;;;;;;;5084305;28;20028;-67
2023/09/09 08:25:51;;;;;;;42.28;35.25;;;;;;;;;;5085578;28;20020;-67
2023/09/09 08:28:16;;;;;;;35.47;31.67;;;;;;;;;;5083591;28;20031;-68
2023/09/09 08:30:41;;;;;;;39.53;35.13;;;;;;;;;;5085108;28;20266;-67
2023/09/09 08:33:07;;;;;;;41.10;34.40;;;;;;;;;;5079829;28;20930;-68
2023/09/09 08:35:32;;;;;;;38.30;34.13;;;;;;;;;;5083269;28;20020;-67
2023/09/09 08:37:59;;;;;;;35.35;30.92;;;;;;;;;;5079991;28;20789;-68
2023/09/09 08:40:25;;;;;;;30.92;27.63;;;;;;;;;;5077336;28;20510;-67
2023/09/09 08:42:50;;;;;;;37.67;33.00;;;;;;;;;;5080745;28;20024;-68
2023/09/09 08:45:21;;;;;;;35.90;31.43;;;;;;;;;;5086880;28;20036;-67
2023/09/09 08:47:47;;;;;;;37.15;33.03;;;;;;;;;;5082878;28;20028;-68
2023/09/09 08:50:13;;;;;;;35.92;32.20;;;;;;;;;;5086603;28;20026;-67
2023/09/09 08:52:39;;;;;;;36.28;31.52;;;;;;;;;;5082324;28;20024;-68
2023/09/09 08:55:05;;;;;;;34.00;28.75;;;;;;;;;;5086518;28;20031;-68
2023/09/09 08:57:31;;;;;;;31.58;28.00;;;;;;;;;;5092863;28;20467;-68
2023/09/09 08:59:57;;;;;;;31.00;26.95;;;;;;;;;;5092724;28;20032;-68
2023/09/09 09:02:22;;;;;;;30.48;27.05;;;;;;;;;;5090219;28;20034;-67
2023/09/09 09:04:47;;;;;;;32.15;28.73;;;;;;;;;;5092088;28;20024;-67
2023/09/09 09:07:13;;;;;;;30.75;25.88;;;;;;;;;;5091033;28;20024;-67
2023/09/09 09:09:38;;;;;;;31.00;27.67;;;;;;;;;;5092451;28;20028;-67
2023/09/09 09:12:04;;;;;;;33.78;27.83;;;;;;;;;;5090427;28;20530;-67
2023/09/09 09:14:29;;;;;;;30.88;27.10;;;;;;;;;;5092091;28;20032;-68
2023/09/09 09:16:55;;;;;;;25.45;22.52;;;;;;;;;;5091035;28;20032;-67
2023/09/09 09:19:27;;;;;;;33.28;26.55;;;;;;;;;;5092372;28;20034;-68
2023/09/09 09:21:53;;;;;;;25.80;23.10;;;;;;;;;;5077769;28;20077;-67
2023/09/09 09:24:21;;;;;;;25.05;22.15;;;;;;;;;;5091603;28;20035;-67
2023/09/09 09:26:46;;;;;;;22.65;19.85;;;;;;;;;;5086017;28;20111;-67
2023/09/09 09:29:11;;;;;;;23.53;21.03;;;;;;;;;;5089113;28;20155;-68
2023/09/09 09:31:37;;;;;;;26.13;21.63;;;;;;;;;;5086304;28;20324;-68
2023/09/09 09:34:02;;;;;;;24.77;21.27;;;;;;;;;;5089674;28;20050;-68
2023/09/09 09:36:27;;;;;;;19.83;17.60;;;;;;;;;;5087219;28;20614;-68
2023/09/09 09:38:53;;;;;;;23.35;20.83;;;;;;;;;;5090625;28;20261;-68
2023/09/09 09:41:19;;;;;;;25.38;22.65;;;;;;;;;;5090477;28;20470;-67
2023/09/09 09:43:48;;;;;;;20.75;18.55;;;;;;;;;;5090677;28;20026;-67
2023/09/09 09:46:21;;;;;;;21.42;19.23;;;;;;;;;;5089360;28;20024;-67
2023/09/09 09:48:47;;;;;;;22.90;20.38;;;;;;;;;;5090846;28;20030;-67
2023/09/09 09:51:12;;;;;;;22.17;17.55;;;;;;;;;;5086883;28;20017;-67
2023/09/09 09:53:50;;;;;;;20.38;16.77;;;;;;;;;;5081032;28;20406;-67
2023/09/09 09:56:16;;;;;;;22.75;18.48;;;;;;;;;;5085364;28;20115;-68
2023/09/09 09:58:43;;;;;;;22.38;16.38;;;;;;;;;;5090203;28;20107;-67
2023/09/09 10:01:09;;;;;;;18.92;16.55;;;;;;;;;;5078422;28;20456;-67
2023/09/09 10:03:51;;;;;;;19.00;17.23;;;;;;;;;;5071867;28;20105;-67
2023/09/09 10:06:18;;;;;;;15.25;12.65;;;;;;;;;;5090686;28;20866;-68
2023/09/09 10:08:52;;;;;;;16.67;14.10;;;;;;;;;;5072065;28;20020;-67
2023/09/09 10:11:19;;;;;;;17.02;15.30;;;;;;;;;;5072107;28;20039;-68
2023/09/09 10:14:10;;;;;;;15.80;13.43;;;;;;;;;;5076920;28;20074;-68
2023/09/09 10:16:36;;;;;;;14.75;13.30;;;;;;;;;;5085705;28;20036;-67
2023/09/09 10:19:03;;;;;;;13.52;11.90;;;;;;;;;;5079416;28;20028;-67
2023/09/09 10:21:30;;;;;;;11.70;9.75;;;;;;;;;;5073575;28;20036;-68
2023/09/09 10:23:56;;;;;;;16.30;11.57;;;;;;;;;;5077421;28;20031;-68
2023/09/09 10:26:21;;;;;;;11.93;10.45;;;;;;;;;;5075833;28;20017;-67
2023/09/09 10:28:48;;;;;;;13.32;11.70;;;;;;;;;;5073287;28;20444;-67
2023/09/09 10:31:14;;;;;;;12.40;9.82;;;;;;;;;;5075628;28;20447;-68
2023/09/09 10:33:42;;;;;;;11.63;9.00;;;;;;;;;;5071556;28;20028;-67
2023/09/09 10:36:08;;;;;;;13.23;7.18;;;;;;;;;;5071550;28;20047;-68
2023/09/09 10:38:33;;;;;;;11.70;9.30;;;;;;;;;;5072108;28;20476;-68
2023/09/09 10:40:59;;;;;;;10.47;9.47;;;;;;;;;;5072659;28;20032;-69
2023/09/09 10:43:24;;;;;;;8.60;6.78;;;;;;;;;;5055138;28;20282;-68
2023/09/09 10:45:50;;;;;;;9.07;7.27;;;;;;;;;;5080658;28;20029;-68
2023/09/09 10:48:20;;;;;;;10.25;6.60;;;;;;;;;;5085643;28;20756;-68
2023/09/09 10:50:45;;;;;;;12.70;7.25;;;;;;;;;;5084540;28;20058;-68
2023/09/09 10:53:19;;;;;;;11.87;6.80;;;;;;;;;;5086282;28;20047;-68
2023/09/09 10:55:46;;;;;;;6.70;5.40;;;;;;;;;;5086898;28;20111;-68
2023/09/09 10:58:14;;;;;;;8.50;5.53;;;;;;;;;;5085674;28;20117;-69
2023/09/09 11:00:41;;;;;;;7.05;5.25;;;;;;;;;;5087092;28;20109;-68
2023/09/09 11:03:10;;;;;;;6.70;5.38;;;;;;;;;;5084288;28;20035;-68
2023/09/09 11:05:54;;;;;;;6.10;4.85;;;;;;;;;;5086361;28;20472;-68
2023/09/09 11:08:31;;;;;;;7.00;5.63;;;;;;;;;;5083770;28;20558;-69
2023/09/09 11:11:15;;;;;;;7.60;6.22;;;;;;;;;;5084891;28;20036;-68
2023/09/09 11:13:40;;;;;;;8.27;6.25;;;;;;;;;;5086194;28;20028;-68
2023/09/09 11:16:06;;;;;;;6.40;5.50;;;;;;;;;;5083968;28;20050;-68
2023/09/09 11:18:32;;;;;;;8.25;5.47;;;;;;;;;;5085224;28;20644;-69
2023/09/09 11:20:59;;;;;;;6.93;5.63;;;;;;;;;;5084567;28;20475;-69
2023/09/09 11:23:25;;;;;;;10.27;6.38;;;;;;;;;;5084275;28;20062;-68
2023/09/09 11:25:51;;;;;;;8.18;6.15;;;;;;;;;;5085800;28;20439;-68
2023/09/09 11:28:16;;;;;;;7.05;6.28;;;;;;;;;;5084866;28;20031;-69
2023/09/09 11:30:42;;;;;;;8.30;6.80;;;;;;;;;;5086412;28;20026;-68
2023/09/09 11:33:07;;;;;;;7.68;5.72;;;;;;;;;;5083071;28;20106;-68
2023/09/09 11:35:33;;;;;;;7.10;5.40;;;;;;;;;;5090237;28;20081;-68
2023/09/09 11:38:04;;;;;;;8.70;5.70;;;;;;;;;;5090155;28;20565;-68
2023/09/09 11:40:29;;;;;;;6.18;4.88;;;;;;;;;;5091527;28;20110;-68
2023/09/09 11:42:55;;;;;;;7.63;5.25;;;;;;;;;;5090894;28;20116;-68
2023/09/09 11:45:20;;;;;;;5.33;4.83;;;;;;;;;;5092074;28;20021;-68
2023/09/09 11:47:45;;;;;;;5.57;5.03;;;;;;;;;;5091330;28;20292;-68
2023/09/09 11:50:10;;;;;;;5.15;4.10;;;;;;;;;;5092598;28;20028;-69
2023/09/09 11:52:36;;;;;;;5.67;4.20;;;;;;;;;;5092219;28;20813;-68
2023/09/09 11:55:01;;;;;;;6.90;4.80;;;;;;;;;;5092548;28;20035;-69
2023/09/09 11:57:27;;;;;;;5.50;4.80;;;;;;;;;;5086658;28;20066;-67
2023/09/09 11:59:53;;;;;;;6.20;4.30;;;;;;;;;;5087343;28;20028;-68
2023/09/09 12:02:18;;;;;;;7.43;4.88;;;;;;;;;;5073809;28;20328;-68
2023/09/09 12:04:57;;;;;;;5.93;4.53;;;;;;;;;;5088169;28;20020;-67
2023/09/09 12:07:23;;;;;;;4.40;3.85;;;;;;;;;;5084035;28;20021;-68
2023/09/09 12:09:49;;;;;;;6.85;4.47;;;;;;;;;;5074191;28;20028;-68
2023/09/09 12:12:14;;;;;;;5.18;4.20;;;;;;;;;;5074535;28;20029;-67
2023/09/09 12:14:40;;;;;;;6.10;4.05;;;;;;;;;;5077531;28;20048;-68
2023/09/09 12:17:05;;;;;;;5.53;4.20;;;;;;;;;;5074007;28;20476;-68
2023/09/09 12:19:30;;;;;;;4.97;3.93;;;;;;;;;;5074648;28;20058;-68
2023/09/09 12:21:55;;;;;;;5.13;4.23;;;;;;;;;;5073850;28;20820;-67
2023/09/09 12:24:21;;;;;;;8.60;4.30;;;;;;;;;;5089972;28;20057;-68
2023/09/09 12:26:50;;;;;;;5.05;3.83;;;;;;;;;;5083944;28;20077;-68
2023/09/09 12:29:15;;;;;;;4.93;3.60;;;;;;;;;;5077280;28;20020;-68
2023/09/09 12:31:51;;;;;;;4.73;3.70;;;;;;;;;;5084065;28;20030;-68
2023/09/09 12:34:17;;;;;;;6.18;4.18;;;;;;;;;;5078850;28;20064;-68
2023/09/09 12:36:42;;;;;;;5.45;3.45;;;;;;;;;;5076050;28;20056;-67
2023/09/09 12:39:09;;;;;;;4.30;3.40;;;;;;;;;;5077704;28;20024;-68
2023/09/09 12:41:34;;;;;;;6.00;3.20;;;;;;;;;;5078037;28;20025;-68
2023/09/09 12:44:06;;;;;;;4.23;3.50;;;;;;;;;;5076844;28;20082;-68
2023/09/09 12:46:31;;;;;;;5.88;3.75;;;;;;;;;;5075317;28;20032;-68
2023/09/09 12:48:57;;;;;;;4.97;3.47;;;;;;;;;;5077520;28;20549;-68
2023/09/09 12:51:23;;;;;;;3.85;3.30;;;;;;;;;;5075678;28;20020;-68
2023/09/09 12:53:49;;;;;;;4.03;2.90;;;;;;;;;;5076831;28;20031;-68
2023/09/09 12:56:15;;;;;;;4.78;3.80;;;;;;;;;;5083335;28;20424;-69
2023/09/09 12:58:40;;;;;;;5.22;3.58;;;;;;;;;;5093489;28;20019;-68
2023/09/09 13:01:06;;;;;;;7.60;3.50;;;;;;;;;;5087606;28;20034;-67
2023/09/09 13:03:31;;;;;;;5.18;3.55;;;;;;;;;;5087630;28;20031;-67
2023/09/09 13:05:57;;;;;;;4.47;3.77;;;;;;;;;;5075290;28;20071;-67
2023/09/09 13:08:22;;;;;;;5.33;3.17;;;;;;;;;;5086467;28;20032;-67
2023/09/09 13:10:47;;;;;;;4.77;3.47;;;;;;;;;;5074740;28;20320;-67
2023/09/09 13:13:12;;;;;;;4.63;3.40;;;;;;;;;;5073936;28;20029;-67
2023/09/09 13:15:38;;;;;;;5.07;3.40;;;;;;;;;;5072807;28;20102;-67
2023/09/09 13:18:06;;;;;;;4.87;3.67;;;;;;;;;;5073114;28;20479;-67
2023/09/09 13:20:31;;;;;;;5.82;4.40;;;;;;;;;;5078871;28;20306;-69
2023/09/09 13:22:56;;;;;;;5.57;3.67;;;;;;;;;;5080163;28;20055;-67
2023/09/09 13:25:22;;;;;;;6.93;4.20;;;;;;;;;;5074262;28;20025;-68
2023/09/09 13:27:48;;;;;;;5.03;3.53;;;;;;;;;;5073979;28;20031;-67
2023/09/09 13:30:13;;;;;;;6.60;3.97;;;;;;;;;;5073519;28;20345;-68
2023/09/09 13:32:38;;;;;;;4.63;3.55;;;;;;;;;;5073054;28;20471;-67
2023/09/09 13:35:04;;;;;;;6.30;4.10;;;;;;;;;;5085686;28;20515;-68
2023/09/09 13:37:29;;;;;;;4.85;3.35;;;;;;;;;;5084644;28;20374;-68
2023/09/09 13:39:55;;;;;;;7.13;3.80;;;;;;;;;;5091366;28;20150;-68
2023/09/09 13:42:20;;;;;;;5.78;3.90;;;;;;;;;;5092339;28;20149;-68
2023/09/09 13:44:45;;;;;;;6.30;4.22;;;;;;;;;;5086087;28;20065;-67
2023/09/09 13:47:11;;;;;;;5.97;4.70;;;;;;;;;;5072622;28;20135;-68
2023/09/09 13:49:38;;;;;;;5.43;4.10;;;;;;;;;;5085968;28;20027;-67
2023/09/09 13:52:04;;;;;;;6.03;4.05;;;;;;;;;;5072573;28;20036;-67
2023/09/09 13:54:29;;;;;;;7.65;3.97;;;;;;;;;;5086629;28;20402;-66
2023/09/09 13:56:54;;;;;;;5.40;3.33;;;;;;;;;;5091356;28;20026;-67
2023/09/09 13:59:19;;;;;;;5.57;4.13;;;;;;;;;;5082220;28;20628;-67
2023/09/09 14:01:45;;;;;;;7.07;3.90;;;;;;;;;;5084865;28;20161;-66
2023/09/09 14:04:10;;;;;;;7.77;3.70;;;;;;;;;;5087988;28;20028;-66
2023/09/09 14:06:35;;;;;;;6.07;4.13;;;;;;;;;;5085240;28;20013;-67
2023/09/09 14:09:00;;;;;;;5.00;3.65;;;;;;;;;;5056860;28;20032;-67
2023/09/09 14:11:26;;;;;;;5.20;3.83;;;;;;;;;;5083547;28;20023;-67
2023/09/09 14:13:51;;;;;;;5.67;4.03;;;;;;;;;;5083442;28;20048;-67
2023/09/09 14:16:16;;;;;;;6.60;3.60;;;;;;;;;;5085793;28;20262;-67